createdAt,value
2018-05-17T00:01:36.788Z,13.80
2018-05-17T00:04:04.343Z,13.80
2018-05-17T00:06:31.863Z,13.60
2018-05-17T00:08:59.377Z,13.60
2018-05-17T00:11:26.891Z,13.70
2018-05-17T00:13:54.530Z,13.70
2018-05-17T00:16:22.089Z,13.60
2018-05-17T00:18:49.608Z,13.50
2018-05-17T00:21:17.875Z,13.40
2018-05-17T00:23:45.417Z,13.40
2018-05-17T00:26:12.925Z,13.30
2018-05-17T00:28:40.452Z,13.20
2018-05-17T00:31:07.964Z,13.20
2018-05-17T00:33:35.512Z,13.20
2018-05-17T00:36:03.014Z,13.20
2018-05-17T00:38:30.527Z,13.40
2018-05-17T00:40:58.039Z,13.40
2018-05-17T00:43:25.549Z,13.30
2018-05-17T00:45:53.113Z,13.10
2018-05-17T00:48:20.631Z,13.10
2018-05-17T00:50:48.898Z,12.90
2018-05-17T00:53:28.327Z,12.90
2018-05-17T00:55:56.064Z,12.90
2018-05-17T00:58:23.577Z,13.00
2018-05-17T01:00:51.093Z,12.90
2018-05-17T01:03:18.612Z,13.00
2018-05-17T01:05:46.141Z,13.00
2018-05-17T01:08:13.671Z,12.90
2018-05-17T01:10:41.184Z,12.90
2018-05-17T01:13:08.706Z,13.00
2018-05-17T01:15:36.982Z,12.80
2018-05-17T01:18:04.593Z,12.80
2018-05-17T01:20:32.137Z,12.60
2018-05-17T01:22:59.693Z,12.70
2018-05-17T01:25:27.342Z,12.60
2018-05-17T01:27:55.152Z,12.80
2018-05-17T01:30:22.661Z,12.60
2018-05-17T01:32:50.170Z,12.80
2018-05-17T01:35:17.691Z,12.80
2018-05-17T01:37:56.962Z,12.70
2018-05-17T01:40:24.482Z,12.60
2018-05-17T01:42:51.998Z,12.50
2018-05-17T01:45:19.515Z,12.40
2018-05-17T01:47:47.030Z,12.40
2018-05-17T01:50:14.539Z,12.50
2018-05-17T01:52:42.043Z,12.40
2018-05-17T01:55:09.559Z,12.30
2018-05-17T01:57:37.059Z,12.30
2018-05-17T02:00:05.369Z,12.40
2018-05-17T02:02:32.865Z,12.40
2018-05-17T02:05:00.379Z,12.50
2018-05-17T02:07:27.891Z,12.30
2018-05-17T02:09:55.409Z,12.20
2018-05-17T02:12:23.187Z,12.30
2018-05-17T02:14:50.699Z,12.30
2018-05-17T02:17:18.423Z,12.20
2018-05-17T02:19:45.957Z,12.20
2018-05-17T02:22:13.598Z,12.20
2018-05-17T02:24:41.113Z,12.10
2018-05-17T02:27:08.624Z,12.10
2018-05-17T02:29:36.147Z,12.00
2018-05-17T02:32:04.675Z,12.20
2018-05-17T02:34:32.204Z,12.20
2018-05-17T02:36:59.771Z,12.00
2018-05-17T02:39:27.276Z,12.20
2018-05-17T02:41:56.328Z,12.20
2018-05-17T02:44:24.157Z,12.20
2018-05-17T02:46:51.854Z,12.30
2018-05-17T02:49:19.362Z,12.10
2018-05-17T02:51:47.099Z,12.10
2018-05-17T02:54:14.609Z,12.00
2018-05-17T02:56:42.141Z,12.00
2018-05-17T02:59:09.644Z,12.00
2018-05-17T03:01:37.223Z,12.10
2018-05-17T03:04:04.730Z,12.20
2018-05-17T03:06:32.510Z,12.20
2018-05-17T03:09:00.019Z,12.20
2018-05-17T03:11:27.666Z,12.30
2018-05-17T03:13:55.170Z,12.20
2018-05-17T03:16:22.690Z,12.20
2018-05-17T03:18:50.212Z,12.10
2018-05-17T03:21:17.724Z,12.20
2018-05-17T03:23:45.232Z,12.10
2018-05-17T03:26:12.741Z,12.00
2018-05-17T03:28:40.255Z,12.00
2018-05-17T03:31:07.792Z,12.00
2018-05-17T03:33:35.321Z,12.10
2018-05-17T03:36:02.829Z,12.10
2018-05-17T03:38:30.339Z,11.90
2018-05-17T03:40:57.859Z,12.10
2018-05-17T03:43:25.527Z,12.10
2018-05-17T03:45:53.051Z,12.20
2018-05-17T03:48:20.757Z,12.10
2018-05-17T03:50:48.275Z,12.00
2018-05-17T03:53:15.957Z,12.10
2018-05-17T03:55:43.731Z,12.10
2018-05-17T03:58:11.235Z,12.20
2018-05-17T04:00:50.582Z,12.00
2018-05-17T04:03:30.056Z,11.90
2018-05-17T04:06:09.799Z,12.00
2018-05-17T04:08:37.367Z,12.20
2018-05-17T04:11:04.870Z,12.20
2018-05-17T04:13:32.475Z,12.30
2018-05-17T04:15:59.985Z,12.20
2018-05-17T04:18:27.503Z,12.10
2018-05-17T04:20:55.166Z,12.20
2018-05-17T04:23:22.679Z,12.10
2018-05-17T04:25:50.190Z,11.90
2018-05-17T04:28:17.696Z,11.80
2018-05-17T04:30:45.262Z,11.90
2018-05-17T04:33:13.046Z,11.90
2018-05-17T04:35:40.822Z,11.90
2018-05-17T04:38:08.330Z,12.10
2018-05-17T04:40:35.865Z,12.00
2018-05-17T04:43:04.155Z,12.00
2018-05-17T04:45:31.674Z,12.00
2018-05-17T04:47:59.191Z,12.00
2018-05-17T04:50:26.788Z,12.00
2018-05-17T04:52:54.306Z,12.20
2018-05-17T04:55:21.974Z,12.10
2018-05-17T04:57:49.486Z,11.90
2018-05-17T05:00:17.091Z,11.70
2018-05-17T05:02:44.637Z,11.90
2018-05-17T05:05:12.119Z,11.90
2018-05-17T05:07:39.630Z,11.80
2018-05-17T05:10:07.156Z,11.70
2018-05-17T05:12:34.653Z,11.70
2018-05-17T05:15:02.170Z,11.70
2018-05-17T05:17:29.682Z,11.70
2018-05-17T05:19:57.283Z,11.80
2018-05-17T05:22:24.787Z,11.90
2018-05-17T05:24:53.068Z,11.90
2018-05-17T05:27:20.787Z,11.90
2018-05-17T05:29:48.310Z,12.10
2018-05-17T05:32:15.823Z,12.00
2018-05-17T05:34:44.110Z,11.90
2018-05-17T05:37:12.756Z,11.90
2018-05-17T05:39:40.260Z,12.10
2018-05-17T05:42:07.779Z,12.30
2018-05-17T05:44:35.288Z,12.40
2018-05-17T05:47:03.191Z,12.30
2018-05-17T05:49:30.702Z,12.60
2018-05-17T05:51:58.205Z,12.60
2018-05-17T05:54:26.610Z,12.70
2018-05-17T05:56:54.286Z,12.70
2018-05-17T05:59:21.810Z,12.70
2018-05-17T06:01:49.322Z,12.70
2018-05-17T06:04:16.829Z,12.70
2018-05-17T06:09:18.938Z,12.10
2018-05-17T06:11:46.638Z,12.10
2018-05-17T06:14:14.139Z,12.20
2018-05-17T06:16:41.646Z,12.20
2018-05-17T06:19:09.165Z,12.20
2018-05-17T06:21:37.446Z,12.20
2018-05-17T06:24:05.140Z,12.20
2018-05-17T06:26:32.934Z,12.10
2018-05-17T06:29:01.138Z,12.40
2018-05-17T06:31:28.654Z,12.70
2018-05-17T06:33:56.200Z,12.60
2018-05-17T06:36:23.719Z,12.70
2018-05-17T06:38:51.456Z,13.00
2018-05-17T06:41:19.231Z,12.90
2018-05-17T06:43:46.938Z,13.00
2018-05-17T06:46:14.467Z,13.00
2018-05-17T06:48:42.199Z,12.90
2018-05-17T06:51:09.710Z,12.70
2018-05-17T06:53:37.414Z,12.60
2018-05-17T06:56:05.029Z,12.60
2018-05-17T06:58:32.539Z,12.30
2018-05-17T07:01:00.148Z,12.10
2018-05-17T07:03:27.569Z,12.10
2018-05-17T07:05:55.226Z,12.40
2018-05-17T07:08:22.771Z,12.40
2018-05-17T07:10:50.271Z,12.20
2018-05-17T07:13:18.504Z,12.30
2018-05-17T07:15:46.018Z,12.20
2018-05-17T07:18:13.791Z,12.30
2018-05-17T07:20:41.935Z,12.40
2018-05-17T07:23:09.628Z,12.30
2018-05-17T07:25:37.134Z,12.40
2018-05-17T07:28:04.647Z,12.60
2018-05-17T07:30:32.152Z,12.60
2018-05-17T07:32:59.801Z,12.70
2018-05-17T07:35:27.307Z,12.50
2018-05-17T07:37:55.006Z,12.30
2018-05-17T07:40:22.770Z,12.20
2018-05-17T07:42:50.293Z,12.20
2018-05-17T07:45:17.806Z,12.40
2018-05-17T07:47:45.339Z,12.30
2018-05-17T07:50:12.866Z,12.50
2018-05-17T07:52:40.390Z,12.40
2018-05-17T07:55:08.130Z,12.40
2018-05-17T07:57:35.654Z,12.20
2018-05-17T08:00:03.358Z,12.30
2018-05-17T08:02:31.118Z,12.70
2018-05-17T08:04:58.886Z,12.90
2018-05-17T08:07:26.406Z,12.80
2018-05-17T08:09:53.920Z,12.60
2018-05-17T08:12:21.551Z,12.50
2018-05-17T08:14:49.311Z,12.40
2018-05-17T08:17:17.090Z,12.50
2018-05-17T08:19:44.598Z,12.60
2018-05-17T08:22:12.110Z,12.80
2018-05-17T08:24:39.763Z,12.60
2018-05-17T08:27:07.270Z,12.50
2018-05-17T08:29:34.781Z,12.40
2018-05-17T08:32:02.325Z,12.50
2018-05-17T08:34:29.819Z,12.50
2018-05-17T08:36:57.350Z,12.60
2018-05-17T08:39:24.860Z,12.60
2018-05-17T08:41:52.566Z,12.50
2018-05-17T08:44:20.082Z,12.60
2018-05-17T08:46:47.585Z,12.50
2018-05-17T08:49:15.103Z,12.40
2018-05-17T08:51:42.614Z,12.50
2018-05-17T08:54:10.530Z,12.80
2018-05-17T08:56:38.060Z,12.90
2018-05-17T08:59:06.573Z,12.80
2018-05-17T09:01:34.083Z,12.70
2018-05-17T09:04:01.603Z,12.90
2018-05-17T09:06:29.166Z,12.80
2018-05-17T09:08:56.691Z,12.90
2018-05-17T09:11:24.622Z,13.20
2018-05-17T09:13:52.338Z,13.30
2018-05-17T09:16:20.012Z,13.20
2018-05-17T09:18:47.522Z,12.80
2018-05-17T09:21:15.252Z,12.90
2018-05-17T09:23:42.758Z,12.90
2018-05-17T09:26:10.462Z,13.20
2018-05-17T09:28:37.981Z,13.20
2018-05-17T09:31:05.501Z,13.30
2018-05-17T09:33:33.114Z,13.20
2018-05-17T09:36:00.638Z,13.00
2018-05-17T09:38:28.146Z,12.80
2018-05-17T09:40:55.688Z,12.90
2018-05-17T09:43:23.936Z,13.20
2018-05-17T09:45:51.615Z,13.20
2018-05-17T09:48:19.167Z,13.30
2018-05-17T09:50:46.662Z,13.30
2018-05-17T09:53:14.185Z,13.30
2018-05-17T09:55:41.797Z,13.40
2018-05-17T09:58:09.301Z,12.90
2018-05-17T10:00:42.813Z,12.90
2018-05-17T10:03:10.620Z,13.00
2018-05-17T10:05:38.362Z,12.90
2018-05-17T10:08:05.883Z,12.60
2018-05-17T10:10:33.598Z,12.50
2018-05-17T10:13:01.110Z,12.80
2018-05-17T10:15:28.658Z,13.10
2018-05-17T10:17:56.246Z,13.10
2018-05-17T10:20:24.037Z,13.20
2018-05-17T10:22:51.559Z,13.20
2018-05-17T10:25:19.071Z,13.40
2018-05-17T10:27:46.707Z,13.50
2018-05-17T10:30:14.223Z,13.10
2018-05-17T10:32:41.735Z,13.20
2018-05-17T10:35:09.386Z,13.00
2018-05-17T10:37:36.886Z,13.10
2018-05-17T10:40:04.418Z,13.20
2018-05-17T10:42:31.938Z,13.20
2018-05-17T10:44:59.445Z,13.40
2018-05-17T10:47:26.962Z,13.40
2018-05-17T10:49:54.482Z,13.20
2018-05-17T10:52:21.996Z,13.50
2018-05-17T10:54:49.519Z,13.50
2018-05-17T10:57:17.115Z,13.40
2018-05-17T10:59:44.890Z,13.50
2018-05-17T11:02:12.642Z,13.40
2018-05-17T11:04:40.165Z,13.40
2018-05-17T11:07:07.818Z,13.50
2018-05-17T11:09:36.227Z,13.40
2018-05-17T11:12:03.756Z,13.40
2018-05-17T11:14:31.347Z,13.70
2018-05-17T11:16:58.878Z,13.60
2018-05-17T11:19:26.602Z,13.70
2018-05-17T11:21:54.116Z,13.50
2018-05-17T11:24:21.895Z,13.20
2018-05-17T11:26:49.406Z,13.40
2018-05-17T11:29:17.105Z,13.50
2018-05-17T11:31:44.819Z,13.50
2018-05-17T11:34:12.335Z,13.60
2018-05-17T11:36:39.852Z,13.90
2018-05-17T11:39:07.533Z,14.00
2018-05-17T11:41:35.078Z,13.70
2018-05-17T11:44:02.608Z,13.80
2018-05-17T11:46:30.880Z,13.70
2018-05-17T11:48:58.408Z,13.70
2018-05-17T11:51:25.906Z,13.70
2018-05-17T11:53:53.516Z,13.90
2018-05-17T11:56:21.282Z,13.70
2018-05-17T11:58:48.793Z,13.60
2018-05-17T12:01:16.301Z,13.80
2018-05-17T12:03:43.818Z,13.80
2018-05-17T12:06:11.318Z,13.50
2018-05-17T12:08:38.850Z,13.60
2018-05-17T12:11:06.365Z,13.70
2018-05-17T12:13:34.707Z,13.50
2018-05-17T12:16:02.211Z,13.40
2018-05-17T12:18:29.730Z,13.50
2018-05-17T12:20:57.378Z,13.50
2018-05-17T12:23:24.891Z,13.70
2018-05-17T12:25:52.594Z,13.60
2018-05-17T12:28:20.233Z,13.50
2018-05-17T12:30:47.786Z,13.60
2018-05-17T12:33:15.294Z,13.40
2018-05-17T12:35:43.050Z,13.50
2018-05-17T12:38:10.569Z,13.70
2018-05-17T12:40:38.198Z,13.30
2018-05-17T12:43:05.713Z,13.30
2018-05-17T12:45:33.477Z,13.30
2018-05-17T12:48:01.243Z,13.30
2018-05-17T12:50:29.012Z,13.40
2018-05-17T12:52:56.521Z,13.40
2018-05-17T12:55:24.198Z,13.00
2018-05-17T12:57:51.701Z,13.20
2018-05-17T13:00:19.447Z,13.10
2018-05-17T13:02:46.962Z,13.00
2018-05-17T13:05:23.573Z,13.00
2018-05-17T13:07:51.082Z,12.90
2018-05-17T13:10:19.412Z,12.90
2018-05-17T13:12:47.027Z,12.90
2018-05-17T13:15:14.595Z,13.10
2018-05-17T13:17:42.110Z,13.10
2018-05-17T13:20:09.824Z,12.90
2018-05-17T13:22:37.617Z,12.90
2018-05-17T13:25:05.382Z,13.00
2018-05-17T13:27:33.141Z,12.90
2018-05-17T13:30:00.657Z,12.80
2018-05-17T13:32:28.167Z,12.90
2018-05-17T13:34:55.790Z,12.90
2018-05-17T13:37:23.615Z,13.00
2018-05-17T13:39:51.118Z,13.00
2018-05-17T13:42:18.802Z,12.90
2018-05-17T13:44:46.322Z,13.00
2018-05-17T13:47:13.834Z,13.10
2018-05-17T13:49:42.598Z,12.90
2018-05-17T13:52:10.168Z,13.00
2018-05-17T13:54:37.816Z,12.90
2018-05-17T13:57:05.348Z,13.00
2018-05-17T13:59:32.851Z,12.80
2018-05-17T14:02:00.601Z,12.90
2018-05-17T14:04:28.115Z,12.70
2018-05-17T14:06:55.837Z,12.70
2018-05-17T14:09:23.458Z,12.80
2018-05-17T14:11:51.027Z,12.90
2018-05-17T14:14:18.745Z,12.90
2018-05-17T14:16:46.469Z,12.80
2018-05-17T14:19:14.070Z,12.80
2018-05-17T14:21:41.577Z,12.70
2018-05-17T14:24:09.250Z,12.70
2018-05-17T14:26:37.021Z,12.80
2018-05-17T14:29:04.552Z,12.90
2018-05-17T14:31:32.058Z,12.90
2018-05-17T14:34:00.606Z,12.80
2018-05-17T14:36:28.126Z,12.80
2018-05-17T14:38:55.641Z,12.80
2018-05-17T14:41:23.291Z,12.70
2018-05-17T14:43:50.806Z,12.60
2018-05-17T14:46:18.507Z,12.60
2018-05-17T14:48:46.293Z,12.70
2018-05-17T14:51:14.036Z,12.70
2018-05-17T14:53:41.545Z,12.70
2018-05-17T14:56:09.224Z,12.70
2018-05-17T14:58:36.740Z,12.70
2018-05-17T15:01:04.474Z,12.70
2018-05-17T15:03:32.056Z,12.60
2018-05-17T15:05:59.586Z,12.70
2018-05-17T15:08:27.092Z,12.70
2018-05-17T15:10:54.610Z,12.60
2018-05-17T15:13:22.625Z,12.70
2018-05-17T15:15:50.146Z,12.70
2018-05-17T15:18:17.651Z,12.50
2018-05-17T15:20:45.323Z,12.40
2018-05-17T15:23:12.839Z,12.40
2018-05-17T15:25:40.912Z,12.30
2018-05-17T15:28:08.412Z,12.30
2018-05-17T15:30:36.067Z,12.30
2018-05-17T15:33:03.601Z,12.30
2018-05-17T15:35:31.288Z,12.40
2018-05-17T15:37:58.793Z,12.30
2018-05-17T15:40:26.514Z,12.20
2018-05-17T15:42:54.026Z,12.20
2018-05-17T15:45:21.542Z,12.20
2018-05-17T15:47:49.122Z,12.20
2018-05-17T15:50:16.672Z,12.20
2018-05-17T15:52:44.438Z,12.20
2018-05-17T15:55:11.945Z,12.10
2018-05-17T15:57:39.664Z,12.70
2018-05-17T16:00:07.167Z,12.90
2018-05-17T16:02:34.678Z,13.00
2018-05-17T16:05:02.346Z,12.90
2018-05-17T16:07:29.871Z,13.00
2018-05-17T16:09:57.554Z,12.80
2018-05-17T16:12:25.079Z,13.10
2018-05-17T16:14:52.703Z,13.00
2018-05-17T16:17:20.998Z,12.90
2018-05-17T16:19:48.646Z,12.90
2018-05-17T16:22:16.559Z,12.90
2018-05-17T16:24:44.057Z,13.00
2018-05-17T16:27:11.644Z,12.90
2018-05-17T16:29:39.130Z,12.90
2018-05-17T16:32:06.638Z,12.80
2018-05-17T16:34:35.066Z,12.80
2018-05-17T16:37:02.588Z,12.80
2018-05-17T16:39:30.102Z,12.70
2018-05-17T16:41:57.844Z,12.90
2018-05-17T16:44:25.634Z,12.60
2018-05-17T16:46:53.166Z,12.70
2018-05-17T16:49:20.678Z,12.80
2018-05-17T16:51:52.149Z,12.80
2018-05-17T16:54:19.676Z,12.60
2018-05-17T16:56:47.218Z,12.60
2018-05-17T16:59:15.559Z,12.60
2018-05-17T17:01:43.103Z,12.70
2018-05-17T17:04:10.611Z,12.80
2018-05-17T17:06:38.167Z,12.80
2018-05-17T17:09:06.418Z,12.40
2018-05-17T17:11:33.947Z,12.30
2018-05-17T17:14:02.236Z,12.10
2018-05-17T17:16:29.746Z,12.10
2018-05-17T17:18:57.392Z,12.00
2018-05-17T17:21:25.158Z,12.00
2018-05-17T17:23:52.932Z,12.10
2018-05-17T17:26:20.434Z,12.10
2018-05-17T17:28:47.954Z,12.00
2018-05-17T17:31:15.468Z,11.90
2018-05-17T17:33:43.054Z,11.90
2018-05-17T17:36:10.749Z,12.00
2018-05-17T17:38:38.270Z,11.90
2018-05-17T17:41:05.811Z,11.80
2018-05-17T17:43:33.474Z,11.80
2018-05-17T17:46:01.266Z,11.80
2018-05-17T17:48:28.795Z,11.80
2018-05-17T17:50:56.362Z,11.80
2018-05-17T17:53:23.915Z,11.80
2018-05-17T17:55:51.416Z,11.70
2018-05-17T17:58:19.238Z,11.70
2018-05-17T18:00:46.663Z,11.60
2018-05-17T18:03:14.349Z,11.60
2018-05-17T18:05:41.879Z,11.70
2018-05-17T18:08:09.757Z,11.70
2018-05-17T18:10:37.355Z,11.70
2018-05-17T18:13:04.898Z,11.60
2018-05-17T18:15:32.571Z,11.60
2018-05-17T18:18:02.011Z,11.70
2018-05-17T18:20:30.343Z,11.70
2018-05-17T18:22:58.040Z,11.70
2018-05-17T18:25:25.554Z,11.60
2018-05-17T18:27:53.075Z,11.70
2018-05-17T18:30:21.351Z,11.70
2018-05-17T18:32:49.093Z,11.70
2018-05-17T18:35:16.603Z,11.60
2018-05-17T18:37:44.126Z,11.60
2018-05-17T18:40:12.486Z,11.60
2018-05-17T18:42:40.109Z,11.60
2018-05-17T18:45:07.642Z,11.70
2018-05-17T18:47:35.268Z,11.60
2018-05-17T18:50:02.952Z,11.60
2018-05-17T18:52:31.489Z,11.60
2018-05-17T18:54:59.018Z,11.60
2018-05-17T18:57:26.682Z,11.70
2018-05-17T18:59:54.219Z,11.70
2018-05-17T19:02:21.892Z,11.60
2018-05-17T19:04:49.281Z,11.60
2018-05-17T19:07:16.852Z,11.60
2018-05-17T19:09:45.870Z,11.60
2018-05-17T19:12:13.391Z,11.60
2018-05-17T19:14:41.035Z,11.60
2018-05-17T19:17:08.839Z,11.60
2018-05-17T19:19:36.369Z,11.60
2018-05-17T19:22:03.874Z,11.60
2018-05-17T19:24:32.165Z,11.50
2018-05-17T19:26:59.707Z,11.50
2018-05-17T19:29:28.249Z,11.40
2018-05-17T19:31:55.828Z,11.40
2018-05-17T19:34:23.480Z,11.50
2018-05-17T19:36:50.985Z,11.60
2018-05-17T19:39:18.512Z,11.60
2018-05-17T19:41:46.180Z,11.70
2018-05-17T19:44:13.680Z,11.60
2018-05-17T19:46:41.309Z,11.70
2018-05-17T19:49:08.839Z,11.60
2018-05-17T19:51:37.316Z,11.60
2018-05-17T19:54:04.835Z,11.70
2018-05-17T19:56:32.346Z,11.70
2018-05-17T19:58:59.892Z,11.70
2018-05-17T20:01:27.685Z,11.70
2018-05-17T20:03:56.813Z,11.70
2018-05-17T20:06:24.336Z,11.70
2018-05-17T20:08:51.866Z,11.70
2018-05-17T20:11:19.466Z,11.70
2018-05-17T20:13:46.917Z,11.70
2018-05-17T20:16:14.562Z,11.80
2018-05-17T20:18:42.127Z,11.80
2018-05-17T20:21:11.688Z,11.80
2018-05-17T20:23:39.368Z,11.70
2018-05-17T20:26:06.881Z,11.70
2018-05-17T20:28:34.578Z,11.70
2018-05-17T20:31:02.106Z,11.60
2018-05-17T20:33:29.646Z,11.70
2018-05-17T20:35:57.174Z,11.70
2018-05-17T20:38:24.683Z,11.70
2018-05-17T20:40:52.224Z,11.70
2018-05-17T20:43:19.730Z,11.60
2018-05-17T20:45:47.412Z,11.60
2018-05-17T20:48:15.075Z,11.60
2018-05-17T20:50:42.591Z,11.70
2018-05-17T20:53:23.644Z,11.70
2018-05-17T20:55:52.012Z,11.80
2018-05-17T20:58:21.026Z,11.80
2018-05-17T21:00:48.722Z,11.90
2018-05-17T21:03:16.491Z,11.80
2018-05-17T21:05:44.011Z,11.80
2018-05-17T21:08:11.732Z,11.80
2018-05-17T21:10:39.909Z,11.80
2018-05-17T21:13:07.444Z,11.70
2018-05-17T21:15:34.983Z,11.80
2018-05-17T21:18:02.930Z,11.70
2018-05-17T21:20:31.853Z,11.80
2018-05-17T21:22:59.414Z,11.70
2018-05-17T21:25:26.952Z,11.70
2018-05-17T21:27:54.706Z,11.70
2018-05-17T21:30:22.221Z,11.80
2018-05-17T21:32:49.862Z,11.80
2018-05-17T21:35:18.323Z,12.20
2018-05-17T21:37:45.830Z,12.20
2018-05-17T21:40:14.458Z,12.60
2018-05-17T21:42:41.962Z,12.60
2018-05-17T21:45:10.785Z,12.60
2018-05-17T21:47:38.365Z,12.50
2018-05-17T21:50:05.886Z,12.50
2018-05-17T21:52:34.530Z,12.40
2018-05-17T21:55:02.150Z,12.50
2018-05-17T21:57:29.729Z,12.60
2018-05-17T21:59:57.364Z,12.60
2018-05-17T22:02:25.498Z,12.70
2018-05-17T22:04:53.022Z,12.60
2018-05-17T22:07:20.677Z,12.70
2018-05-17T22:09:50.086Z,12.60
2018-05-17T22:12:19.414Z,12.40
2018-05-17T22:14:49.302Z,12.40
2018-05-17T22:17:18.329Z,12.50
2018-05-17T22:19:47.152Z,12.70
2018-05-17T22:22:18.119Z,12.70
2018-05-17T22:24:45.632Z,12.70
2018-05-17T22:27:13.164Z,12.60
2018-05-17T22:29:40.681Z,12.60
2018-05-17T22:32:08.230Z,12.80
2018-05-17T22:34:36.018Z,12.80
2018-05-17T22:37:03.570Z,13.00
2018-05-17T22:39:31.132Z,12.80
2018-05-17T22:42:01.285Z,12.80
2018-05-17T22:44:28.928Z,12.60
2018-05-17T22:46:56.436Z,12.40
2018-05-17T22:49:24.364Z,12.50
2018-05-17T22:51:51.915Z,12.70
2018-05-17T22:54:19.657Z,12.60
2018-05-17T22:56:58.995Z,12.70
2018-05-17T22:59:26.553Z,12.60
2018-05-17T23:01:54.062Z,12.50
2018-05-17T23:04:21.570Z,12.50
2018-05-17T23:06:49.231Z,12.40
2018-05-17T23:09:16.729Z,12.40
2018-05-17T23:11:44.244Z,12.30
2018-05-17T23:14:11.757Z,12.30
2018-05-17T23:16:40.287Z,12.40
2018-05-17T23:19:08.058Z,12.50
2018-05-17T23:21:35.582Z,12.50
2018-05-17T23:24:03.098Z,12.50
2018-05-17T23:26:31.649Z,12.30
2018-05-17T23:28:59.164Z,12.30
2018-05-17T23:31:26.861Z,12.10
2018-05-17T23:33:54.363Z,12.20
2018-05-17T23:36:22.062Z,12.30
2018-05-17T23:38:49.578Z,12.10
2018-05-17T23:41:28.926Z,12.40
2018-05-17T23:43:56.426Z,12.20
2018-05-17T23:46:23.969Z,12.20
2018-05-17T23:48:51.654Z,12.20
2018-05-17T23:51:19.166Z,12.20
2018-05-17T23:53:46.879Z,12.20
2018-05-17T23:56:14.395Z,12.20
2018-05-17T23:58:41.915Z,12.10
